Time;durP1;ratioP1;P1;durP2;ratioP2;P2;SDS_P1;SDS_P2;PMS_P1;PMS_P2;Temp;Humidity;BMP_temperature;BMP_pressure;BME280_temperature;BME280_humidity;BME280_pressure;Samples;Min_cycle;Max_cycle;Signal;HPM_P1;HPM_P2
2022/01/01 00:01:42;;;;;;;;;;;;;;;25.82;62.36;97263.95;624737;227;62887;-68
2022/01/01 00:04:09;;;;;;;;;;;;;;;25.82;62.29;97264.75;624750;227;67530;-69
2022/01/01 00:06:38;;;;;;;;;;;;;;;25.82;61.78;97259.36;624739;227;65086;-68
2022/01/01 00:09:05;;;;;;;;;;;;;;;25.82;61.82;97253.98;624739;227;65108;-68
2022/01/01 00:11:33;;;;;;;;;;;;;;;25.79;62.50;97251.88;624759;227;66925;-68
2022/01/01 00:14:01;;;;;;;;;;;;;;;25.78;61.75;97250.30;624795;227;67707;-69
2022/01/01 00:16:29;;;;;;;;;;;;;;;25.80;61.56;97247.29;624750;227;64978;-68
2022/01/01 00:18:57;;;;;;;;;;;;;;;25.79;62.62;97238.42;624824;227;64878;-72
2022/01/01 00:21:24;;;;;;;;;;;;;;;25.77;63.31;97251.38;624770;227;67024;-72
2022/01/01 00:23:52;;;;;;;;;;;;;;;25.76;64.24;97239.02;624770;227;65065;-72
2022/01/01 00:26:19;;;;;;;;;;;;;;;25.76;62.49;97238.23;624758;227;67255;-72
2022/01/01 00:28:47;;;;;;;;;;;;;;;25.74;62.28;97249.28;624809;227;67212;-72
2022/01/01 00:31:15;;;;;;;;;;;;;;;25.74;64.57;97245.79;624819;227;65012;-72
2022/01/01 00:33:42;;;;;;;;;;;;;;;25.72;61.61;97232.61;624732;227;67218;-72
2022/01/01 00:36:10;;;;;;;;;;;;;;;25.72;63.52;97229.92;624807;227;66999;-72
2022/01/01 00:38:37;;;;;;;;;;;;;;;25.73;63.75;97223.47;624772;227;65119;-72
2022/01/01 00:41:05;;;;;;;;;;;;;;;25.71;62.08;97222.16;624769;227;67070;-72
2022/01/01 00:43:32;;;;;;;;;;;;;;;25.69;61.77;97217.86;624853;227;66844;-72
2022/01/01 00:46:00;;;;;;;;;;;;;;;25.71;64.14;97220.27;624778;227;64870;-72
2022/01/01 00:48:27;;;;;;;;;;;;;;;25.70;60.72;97213.30;624756;227;67298;-72
2022/01/01 00:50:55;;;;;;;;;;;;;;;25.69;63.68;97217.86;624689;226;67209;-72
2022/01/01 00:53:22;;;;;;;;;;;;;;;25.68;63.84;97218.96;624784;227;64849;-72
2022/01/01 00:55:50;;;;;;;;;;;;;;;25.68;61.53;97213.58;624771;227;67272;-72
2022/01/01 00:58:17;;;;;;;;;;;;;;;25.67;64.96;97213.86;624843;227;66869;-72
2022/01/01 01:00:45;;;;;;;;;;;;;;;25.67;64.59;97216.55;624751;227;62995;-72
2022/01/01 01:03:13;;;;;;;;;;;;;;;25.66;62.94;97210.38;624750;227;67222;-72
2022/01/01 01:05:41;;;;;;;;;;;;;;;25.63;62.61;97208.28;624770;227;67100;-72
2022/01/01 01:08:09;;;;;;;;;;;;;;;25.65;62.64;97210.69;624823;227;65011;-72
2022/01/01 01:10:37;;;;;;;;;;;;;;;25.64;62.61;97209.08;624864;227;66721;-72
2022/01/01 01:13:06;;;;;;;;;;;;;;;25.66;61.73;97212.27;624811;227;67173;-72
2022/01/01 01:15:34;;;;;;;;;;;;;;;25.64;63.41;97209.08;624773;227;64931;-72
2022/01/01 01:18:04;;;;;;;;;;;;;;;25.63;61.53;97212.88;624813;227;67335;-72
2022/01/01 01:20:32;;;;;;;;;;;;;;;25.63;63.65;97205.59;624779;227;66901;-72
2022/01/01 01:22:59;;;;;;;;;;;;;;;25.62;63.88;97208.59;624844;227;65037;-72
2022/01/01 01:25:39;;;;;;;;;;;;;;;25.62;63.51;97204.00;624782;227;67159;-72
2022/01/01 01:28:05;;;;;;;;;;;;;;;25.60;62.43;97202.70;624371;226;67066;-72
2022/01/01 01:30:26;;;;;;;;;;;;;;;25.60;64.53;97208.09;624583;226;65009;-72
2022/01/01 01:32:53;;;;;;;;;;;;;;;25.60;61.45;97210.78;624855;227;67266;-72
2022/01/01 01:35:20;;;;;;;;;;;;;;;25.58;61.98;97204.88;624838;227;66855;-68
2022/01/01 01:37:48;;;;;;;;;;;;;;;25.59;63.13;97206.47;624866;227;64723;-68
2022/01/01 01:40:15;;;;;;;;;;;;;;;25.58;62.42;97207.58;624791;227;66984;-68
2022/01/01 01:42:46;;;;;;;;;;;;;;;25.56;63.38;97201.69;624766;227;67198;-68
2022/01/01 01:45:19;;;;;;;;;;;;;;;25.54;61.77;97193.13;624811;227;64959;-68
2022/01/01 01:47:47;;;;;;;;;;;;;;;25.54;61.29;97201.20;624801;227;64842;-68
2022/01/01 01:50:15;;;;;;;;;;;;;;;25.54;61.78;97195.82;624818;226;64986;-68
2022/01/01 01:52:44;;;;;;;;;;;;;;;25.53;60.74;97196.90;624794;227;62589;-68
2022/01/01 01:55:12;;;;;;;;;;;;;;;25.53;62.47;97192.31;624793;227;67032;-68
2022/01/01 01:57:41;;;;;;;;;;;;;;;25.53;62.38;97196.90;624837;227;66838;-68
2022/01/01 02:02:57;;;;;;;;;;;;;;;25.51;61.60;97188.31;624794;227;64866;-67
2022/01/01 02:05:25;;;;;;;;;;;;;;;25.51;63.23;97191.83;624792;227;65215;-67
2022/01/01 02:07:53;;;;;;;;;;;;;;;25.47;61.02;97183.53;624782;227;65003;-67
2022/01/01 02:10:21;;;;;;;;;;;;;;;25.47;61.54;97178.15;624790;227;67250;-67
2022/01/01 02:12:53;;;;;;;;;;;;;;;25.47;61.48;97174.66;624801;227;67015;-67
2022/01/01 02:15:45;;;;;;;;;;;;;;;25.46;61.51;97165.80;624717;226;64890;-67
2022/01/01 02:18:03;;;;;;;;;;;;;;;25.46;61.51;97179.25;624522;226;64836;-69
2022/01/01 02:20:31;;;;;;;;;;;;;;;25.47;62.79;97169.28;624827;227;64755;-66
2022/01/01 02:23:00;;;;;;;;;;;;;;;25.44;61.15;97167.19;624826;227;62858;-67
2022/01/01 02:25:28;;;;;;;;;;;;;;;25.46;62.01;97165.80;624816;227;66697;-71
2022/01/01 02:27:56;;;;;;;;;;;;;;;25.49;64.01;97171.69;624779;227;64922;-72
2022/01/01 02:30:24;;;;;;;;;;;;;;;25.46;62.13;97173.87;624737;227;62994;-71
2022/01/01 02:32:51;;;;;;;;;;;;;;;25.45;61.74;97166.08;624843;227;65113;-71
2022/01/01 02:35:19;;;;;;;;;;;;;;;25.46;63.65;97176.56;624792;227;64830;-72
2022/01/01 02:37:46;;;;;;;;;;;;;;;25.44;63.26;97172.57;624819;227;62982;-72
2022/01/01 02:40:14;;;;;;;;;;;;;;;25.43;61.13;97168.30;624762;227;64863;-72
2022/01/01 02:42:43;;;;;;;;;;;;;;;25.45;62.39;97158.84;624812;227;67031;-71
2022/01/01 02:45:12;;;;;;;;;;;;;;;25.42;60.93;97166.68;624853;227;64995;-72
2022/01/01 02:47:39;;;;;;;;;;;;;;;25.42;61.31;97159.40;624827;227;66751;-68
2022/01/01 02:50:08;;;;;;;;;;;;;;;25.44;64.53;97156.43;624911;226;65753;-67
2022/01/01 02:52:36;;;;;;;;;;;;;;;25.41;64.89;97154.33;625927;226;65131;-68
2022/01/01 02:55:05;;;;;;;;;;;;;;;25.43;61.47;97161.02;625897;226;66576;-68
2022/01/01 02:57:32;;;;;;;;;;;;;;;25.40;62.33;97161.61;625892;226;64743;-68
2022/01/01 03:00:00;;;;;;;;;;;;;;;25.40;63.08;97155.41;625966;226;62716;-67
2022/01/01 03:02:28;;;;;;;;;;;;;;;25.40;63.46;97147.34;625893;226;64782;-68
2022/01/01 03:04:55;;;;;;;;;;;;;;;25.40;63.10;97145.47;625968;226;64672;-68
2022/01/01 03:07:23;;;;;;;;;;;;;;;25.41;63.19;97138.98;625946;226;62836;-68
2022/01/01 03:09:50;;;;;;;;;;;;;;;25.39;62.25;97151.13;625936;226;64672;-68
2022/01/01 03:12:18;;;;;;;;;;;;;;;25.38;60.39;97147.66;625985;226;65453;-68
2022/01/01 03:14:45;;;;;;;;;;;;;;;25.38;63.99;97142.27;625940;226;63620;-68
2022/01/01 03:17:13;;;;;;;;;;;;;;;25.36;63.05;97149.83;625933;226;67104;-68
2022/01/01 03:19:40;;;;;;;;;;;;;;;25.37;61.97;97148.76;625919;226;67365;-71
2022/01/01 03:22:08;;;;;;;;;;;;;;;25.35;61.63;97147.45;625938;226;65143;-72
2022/01/01 03:24:35;;;;;;;;;;;;;;;25.36;62.11;97144.45;625952;226;66975;-72
2022/01/01 03:27:03;;;;;;;;;;;;;;;25.37;61.42;97148.76;625923;226;66994;-72
2022/01/01 03:29:32;;;;;;;;;;;;;;;25.37;63.10;97145.24;625935;226;65066;-72
2022/01/01 03:32:00;;;;;;;;;;;;;;;25.35;63.25;97136.69;625938;226;67213;-72
2022/01/01 03:34:27;;;;;;;;;;;;;;;25.32;63.09;97148.84;625911;226;67057;-72
2022/01/01 03:36:55;;;;;;;;;;;;;;;25.32;64.42;97143.46;625998;226;65094;-72
2022/01/01 03:39:22;;;;;;;;;;;;;;;25.32;63.98;97138.08;625914;226;66836;-72
2022/01/01 03:41:50;;;;;;;;;;;;;;;25.32;63.95;97143.46;625898;226;64783;-72
2022/01/01 03:44:18;;;;;;;;;;;;;;;25.29;63.10;97149.44;625903;226;62916;-72
2022/01/01 03:46:46;;;;;;;;;;;;;;;25.31;63.34;97147.23;625922;224;65021;-72
2022/01/01 03:49:14;;;;;;;;;;;;;;;25.30;62.93;97145.64;625973;226;67017;-72
2022/01/01 03:51:41;;;;;;;;;;;;;;;25.30;64.36;97140.27;625843;226;65049;-72
2022/01/01 03:54:11;;;;;;;;;;;;;;;25.30;63.37;97142.95;625917;226;67092;-72
2022/01/01 03:56:38;;;;;;;;;;;;;;;25.29;62.62;97137.86;625920;226;66841;-72
2022/01/01 03:59:06;;;;;;;;;;;;;;;25.29;63.75;97144.05;625927;226;65131;-72
2022/01/01 04:01:33;;;;;;;;;;;;;;;25.28;62.50;97134.38;625908;226;67220;-72
2022/01/01 04:04:00;;;;;;;;;;;;;;;25.30;63.76;97144.84;625961;226;66881;-72
2022/01/01 04:06:28;;;;;;;;;;;;;;;25.25;63.01;97129.59;625922;226;64996;-68
2022/01/01 04:08:55;;;;;;;;;;;;;;;25.25;63.48;97143.03;625892;226;67196;-68
2022/01/01 04:11:23;;;;;;;;;;;;;;;25.24;62.37;97144.14;625786;226;66816;-67
2022/01/01 04:13:50;;;;;;;;;;;;;;;25.25;63.93;97140.34;625951;226;65042;-68
2022/01/01 04:16:19;;;;;;;;;;;;;;;25.25;63.21;97143.03;625958;226;67227;-68
2022/01/01 04:18:46;;;;;;;;;;;;;;;25.21;62.83;97134.77;625907;226;64733;-67
2022/01/01 04:21:14;;;;;;;;;;;;;;;25.24;63.27;97139.55;625910;226;64915;-68
2022/01/01 04:23:43;;;;;;;;;;;;;;;25.22;63.51;97140.94;625898;226;67206;-67
2022/01/01 04:26:11;;;;;;;;;;;;;;;25.22;63.71;97146.32;625948;226;66662;-68
2022/01/01 04:28:40;;;;;;;;;;;;;;;25.23;63.73;97145.22;625974;226;65116;-68
2022/01/01 04:31:08;;;;;;;;;;;;;;;25.20;64.21;97145.81;625893;226;65039;-67
2022/01/01 04:33:35;;;;;;;;;;;;;;;25.19;62.50;97149.60;625865;226;65208;-68
2022/01/01 04:36:03;;;;;;;;;;;;;;;25.18;63.47;97147.98;625922;226;62906;-68
2022/01/01 04:41:00;;;;;;;;;;;;;;;25.17;63.55;97155.27;625953;226;64740;-67
2022/01/01 04:43:27;;;;;;;;;;;;;;;25.19;64.60;97157.67;625913;226;65066;-67
2022/01/01 04:45:55;;;;;;;;;;;;;;;25.19;63.41;97163.05;625885;226;64896;-67
2022/01/01 04:48:22;;;;;;;;;;;;;;;25.17;63.19;97162.54;625927;226;64858;-67
2022/01/01 04:50:50;;;;;;;;;;;;;;;25.14;62.52;97168.48;625868;226;62711;-67
2022/01/01 04:53:18;;;;;;;;;;;;;;;25.14;62.90;97163.89;625926;226;64292;-67
2022/01/01 04:55:47;;;;;;;;;;;;;;;25.15;63.19;97176.27;625873;226;67152;-67
2022/01/01 04:58:15;;;;;;;;;;;;;;;25.14;65.14;97174.66;625873;226;64991;-67
2022/01/01 05:00:43;;;;;;;;;;;;;;;25.13;64.08;97177.66;625866;224;67198;-67
2022/01/01 05:03:10;;;;;;;;;;;;;;;25.13;63.93;97177.66;625883;226;64661;-67
2022/01/01 05:05:39;;;;;;;;;;;;;;;25.13;64.03;97180.34;625935;226;63092;-67
2022/01/01 05:08:06;;;;;;;;;;;;;;;25.10;66.31;97173.66;625898;226;67174;-67
2022/01/01 05:10:34;;;;;;;;;;;;;;;25.09;63.60;97182.00;625860;226;66975;-67
2022/01/01 05:13:01;;;;;;;;;;;;;;;25.10;63.51;97180.90;625872;226;65068;-67
2022/01/01 05:15:29;;;;;;;;;;;;;;;25.10;64.12;97192.48;625904;226;64934;-71
2022/01/01 05:17:57;;;;;;;;;;;;;;;25.09;65.66;97190.86;625633;226;64811;-71
2022/01/01 05:20:25;;;;;;;;;;;;;;;25.08;63.58;97191.17;625920;226;65021;-71
2022/01/01 05:22:53;;;;;;;;;;;;;;;25.08;64.64;97191.97;625879;226;67168;-71
2022/01/01 05:25:20;;;;;;;;;;;;;;;25.08;64.65;97197.34;625899;226;65005;-71
2022/01/01 05:27:48;;;;;;;;;;;;;;;25.07;65.96;97194.94;625884;226;62733;-71
2022/01/01 05:30:15;;;;;;;;;;;;;;;25.07;64.73;97195.73;625956;226;66997;-71
2022/01/01 05:32:43;;;;;;;;;;;;;;;25.06;65.49;97196.04;625918;226;67019;-71
2022/01/01 05:35:11;;;;;;;;;;;;;;;25.04;64.99;97196.31;625895;226;65021;-71
2022/01/01 05:37:38;;;;;;;;;;;;;;;25.04;64.78;97199.01;625902;226;67080;-71
2022/01/01 05:40:06;;;;;;;;;;;;;;;25.01;64.48;97197.70;625902;226;66738;-71
2022/01/01 05:42:34;;;;;;;;;;;;;;;25.01;65.93;97196.91;625955;226;65036;-71
2022/01/01 05:45:01;;;;;;;;;;;;;;;25.01;65.00;97203.08;625914;226;67073;-71
2022/01/01 05:47:29;;;;;;;;;;;;;;;25.02;65.14;97203.91;625878;226;67333;-67
2022/01/01 05:49:58;;;;;;;;;;;;;;;25.02;65.41;97193.94;625820;226;62860;-71
2022/01/01 05:52:25;;;;;;;;;;;;;;;24.99;63.73;97194.53;625892;226;66808;-71
2022/01/01 05:54:53;;;;;;;;;;;;;;;25.00;65.72;97190.73;625917;226;67130;-71
2022/01/01 05:57:20;;;;;;;;;;;;;;;24.98;65.54;97194.80;626000;226;65024;-71
2022/01/01 05:59:48;;;;;;;;;;;;;;;24.98;64.15;97189.43;625934;226;67183;-67
2022/01/01 06:02:15;;;;;;;;;;;;;;;24.96;63.81;97187.05;625929;226;66994;-67
2022/01/01 06:04:43;;;;;;;;;;;;;;;24.95;65.46;97196.19;625967;224;64976;-67
2022/01/01 06:07:10;;;;;;;;;;;;;;;24.96;65.33;97191.61;625902;226;66814;-67
2022/01/01 06:09:38;;;;;;;;;;;;;;;24.98;66.63;97186.74;625977;226;66879;-68
2022/01/01 06:12:06;;;;;;;;;;;;;;;24.97;63.58;97174.41;625876;226;65129;-67
2022/01/01 06:14:33;;;;;;;;;;;;;;;24.96;63.95;97164.72;625901;226;67466;-68
2022/01/01 06:17:01;;;;;;;;;;;;;;;24.95;64.84;97163.92;625894;226;67005;-67
2022/01/01 06:19:28;;;;;;;;;;;;;;;24.96;63.84;97164.72;625893;226;64835;-67
2022/01/01 06:21:56;;;;;;;;;;;;;;;24.97;66.09;97166.33;625955;226;67006;-67
2022/01/01 06:24:23;;;;;;;;;;;;;;;24.94;63.73;97178.47;625908;226;67005;-72
2022/01/01 06:26:51;;;;;;;;;;;;;;;24.94;65.66;97180.37;625943;226;64999;-67
2022/01/01 06:29:18;;;;;;;;;;;;;;;24.95;64.80;97182.75;625923;224;67180;-67
2022/01/01 06:31:45;;;;;;;;;;;;;;;24.93;63.91;97182.23;625902;226;67053;-67
2022/01/01 06:34:13;;;;;;;;;;;;;;;24.94;65.34;97191.13;625963;226;65176;-67
2022/01/01 06:36:40;;;;;;;;;;;;;;;24.89;65.44;97194.67;625913;226;67144;-67
2022/01/01 06:39:08;;;;;;;;;;;;;;;24.90;66.57;97187.41;625950;226;66812;-67
2022/01/01 06:41:35;;;;;;;;;;;;;;;24.91;65.21;97194.37;625923;226;65168;-67
2022/01/01 06:44:03;;;;;;;;;;;;;;;24.91;64.71;97188.98;625926;226;67004;-67
2022/01/01 06:46:31;;;;;;;;;;;;;;;24.91;65.54;97189.81;625986;226;67032;-67
2022/01/01 06:48:58;;;;;;;;;;;;;;;24.90;62.17;97203.53;625914;226;65006;-67
2022/01/01 06:51:25;;;;;;;;;;;;;;;24.89;64.38;97201.95;625129;226;67059;-68
2022/01/01 06:53:53;;;;;;;;;;;;;;;24.91;65.12;97199.74;624821;227;66322;-67
2022/01/01 06:56:20;;;;;;;;;;;;;;;24.87;62.31;97199.53;624812;227;65033;-68
2022/01/01 06:58:48;;;;;;;;;;;;;;;24.87;66.29;97202.22;624853;227;66914;-68
2022/01/01 07:01:15;;;;;;;;;;;;;;;24.87;63.93;97187.99;624809;227;66887;-67
2022/01/01 07:03:43;;;;;;;;;;;;;;;24.87;64.35;97186.09;624811;227;65072;-68
2022/01/01 07:06:10;;;;;;;;;;;;;;;24.87;64.70;97185.30;624812;227;66468;-68
2022/01/01 07:08:38;;;;;;;;;;;;;;;24.88;65.48;97182.34;624821;227;66592;-68
2022/01/01 07:11:05;;;;;;;;;;;;;;;24.87;64.66;97178.03;624794;227;64975;-68
2022/01/01 07:13:33;;;;;;;;;;;;;;;24.84;62.18;97173.24;624865;227;66789;-68
2022/01/01 07:16:00;;;;;;;;;;;;;;;24.87;65.76;97179.92;624766;227;64810;-68
2022/01/01 07:18:28;;;;;;;;;;;;;;;24.85;64.01;97182.89;624802;227;63687;-68
2022/01/01 07:20:55;;;;;;;;;;;;;;;24.86;66.40;97191.78;624661;227;66836;-68
2022/01/01 07:23:23;;;;;;;;;;;;;;;24.85;61.97;97190.95;624761;227;67075;-68
2022/01/01 07:25:50;;;;;;;;;;;;;;;24.84;65.16;97192.06;624772;227;65195;-67
2022/01/01 07:28:18;;;;;;;;;;;;;;;24.85;65.53;97195.54;624748;227;65106;-68
2022/01/01 07:30:45;;;;;;;;;;;;;;;24.82;61.71;97202.30;624760;227;64466;-68
2022/01/01 07:33:13;;;;;;;;;;;;;;;24.83;64.24;97209.28;624766;227;63803;-68
2022/01/01 07:35:41;;;;;;;;;;;;;;;24.81;64.94;97212.25;624617;227;67299;-68
2022/01/01 07:38:09;;;;;;;;;;;;;;;24.83;66.69;97217.35;624762;227;66972;-72
2022/01/01 07:40:38;;;;;;;;;;;;;;;24.79;62.62;97235.13;624767;227;62890;-71
2022/01/01 07:43:13;;;;;;;;;;;;;;;24.79;64.29;97241.30;624517;227;67266;-72
2022/01/01 07:45:41;;;;;;;;;;;;;;;24.79;64.36;97249.37;624422;226;63797;-72
2022/01/01 07:48:09;;;;;;;;;;;;;;;24.79;65.34;97249.37;624788;227;62896;-72
2022/01/01 07:50:37;;;;;;;;;;;;;;;24.77;61.97;97248.05;624546;226;65005;-72
2022/01/01 07:53:05;;;;;;;;;;;;;;;24.79;65.02;97253.95;624672;227;64929;-72
2022/01/01 07:55:33;;;;;;;;;;;;;;;24.72;63.47;97254.32;624747;227;66649;-72
2022/01/01 07:58:01;;;;;;;;;;;;;;;24.72;67.81;97258.91;621161;227;66403;-72
2022/01/01 08:00:29;;;;;;;;;;;;;;;24.71;65.40;97258.08;624797;227;64956;-72
2022/01/01 08:02:56;;;;;;;;;;;;;;;24.71;66.69;97252.70;624777;227;63045;-72
2022/01/01 08:05:23;;;;;;;;;;;;;;;24.73;66.82;97257.80;624803;227;64877;-72
2022/01/01 08:07:51;;;;;;;;;;;;;;;24.72;64.36;97248.16;624709;227;66628;-72
2022/01/01 08:10:20;;;;;;;;;;;;;;;24.70;64.66;97250.32;624772;227;65048;-72
2022/01/01 08:12:47;;;;;;;;;;;;;;;24.70;67.46;97239.58;624722;227;67059;-73
2022/01/01 08:15:15;;;;;;;;;;;;;;;24.69;64.58;97246.02;624739;227;67362;-72
2022/01/01 08:17:43;;;;;;;;;;;;;;;24.69;63.32;97246.02;624813;227;65189;-72
2022/01/01 08:20:11;;;;;;;;;;;;;;;24.71;65.48;97258.08;624783;227;64825;-72
2022/01/01 08:22:39;;;;;;;;;;;;;;;24.68;66.44;97247.12;624734;227;66889;-72
2022/01/01 08:25:07;;;;;;;;;;;;;;;24.71;66.07;97251.91;624772;227;65122;-72
2022/01/01 08:27:35;;;;;;;;;;;;;;;24.67;62.58;97250.91;624754;227;67069;-72
2022/01/01 08:30:02;;;;;;;;;;;;;;;24.70;64.12;97242.26;624776;227;68084;-72
2022/01/01 08:32:30;;;;;;;;;;;;;;;24.68;66.25;97242.53;624731;227;64843;-72
2022/01/01 08:34:57;;;;;;;;;;;;;;;24.68;63.07;97239.05;624681;227;66928;-73
2022/01/01 08:37:24;;;;;;;;;;;;;;;24.69;63.16;97237.95;624764;227;66834;-72
2022/01/01 08:39:53;;;;;;;;;;;;;;;24.69;66.17;97238.78;624743;227;62883;-72
2022/01/01 08:42:21;;;;;;;;;;;;;;;24.70;63.49;97239.58;624698;227;67316;-72
2022/01/01 08:44:49;;;;;;;;;;;;;;;24.68;66.59;97233.68;624773;227;67128;-72
2022/01/01 08:47:17;;;;;;;;;;;;;;;24.67;63.97;97238.27;624743;227;64889;-72
2022/01/01 08:49:44;;;;;;;;;;;;;;;24.68;62.20;97239.84;624699;227;64879;-68
2022/01/01 08:52:12;;;;;;;;;;;;;;;24.69;65.99;97232.58;624740;226;64812;-68
2022/01/01 08:54:39;;;;;;;;;;;;;;;24.69;65.71;97238.78;624750;227;62975;-68
2022/01/01 08:57:09;;;;;;;;;;;;;;;24.68;63.99;97231.78;624832;227;65011;-68
2022/01/01 08:59:36;;;;;;;;;;;;;;;24.68;66.77;97231.78;624778;227;64973;-68
2022/01/01 09:02:04;;;;;;;;;;;;;;;24.69;65.48;97235.27;624767;227;62883;-68
2022/01/01 09:04:31;;;;;;;;;;;;;;;24.69;66.38;97235.27;624744;227;67262;-68
2022/01/01 09:06:59;;;;;;;;;;;;;;;24.69;66.26;97235.27;624779;227;64842;-68
2022/01/01 09:09:26;;;;;;;;;;;;;;;24.68;65.06;97236.37;624816;227;62832;-68
2022/01/01 09:11:54;;;;;;;;;;;;;;;24.67;64.24;97240.95;624768;227;64875;-68
2022/01/01 09:14:21;;;;;;;;;;;;;;;24.68;65.76;97231.78;624779;227;67130;-68
2022/01/01 09:16:49;;;;;;;;;;;;;;;24.67;66.83;97234.78;624746;227;65108;-68
2022/01/01 09:19:19;;;;;;;;;;;;;;;24.68;65.34;97220.24;624771;227;67140;-68
2022/01/01 09:21:46;;;;;;;;;;;;;;;24.68;65.46;97220.24;624869;227;66813;-68
2022/01/01 09:24:14;;;;;;;;;;;;;;;24.68;65.28;97226.41;624762;227;63089;-68
2022/01/01 09:26:41;;;;;;;;;;;;;;;24.70;66.18;97226.14;624775;227;64898;-68
2022/01/01 09:29:10;;;;;;;;;;;;;;;24.69;65.01;97219.97;624728;227;65347;-68
2022/01/01 09:31:39;;;;;;;;;;;;;;;24.68;64.20;97225.62;624801;227;65008;-68
2022/01/01 09:34:07;;;;;;;;;;;;;;;24.69;65.12;97228.03;624811;227;67120;-72
2022/01/01 09:36:35;;;;;;;;;;;;;;;24.70;66.09;97239.58;624844;227;67240;-72
2022/01/01 09:39:03;;;;;;;;;;;;;;;24.70;65.19;97228.82;624799;227;65063;-72
2022/01/01 09:41:31;;;;;;;;;;;;;;;24.69;66.22;97227.20;624705;227;67224;-72
2022/01/01 09:43:59;;;;;;;;;;;;;;;24.70;65.75;97218.07;624755;227;64855;-72
2022/01/01 09:46:26;;;;;;;;;;;;;;;24.71;65.43;97227.72;624802;227;62970;-72
2022/01/01 09:48:54;;;;;;;;;;;;;;;24.70;67.26;97236.88;624820;227;64617;-72
2022/01/01 09:51:22;;;;;;;;;;;;;;;24.70;65.01;97234.20;624777;226;65099;-72
2022/01/01 09:53:49;;;;;;;;;;;;;;;24.70;64.06;97242.26;623599;227;62705;-72
2022/01/01 09:56:17;;;;;;;;;;;;;;;24.69;64.40;97240.64;623495;227;67188;-72
2022/01/01 09:58:44;;;;;;;;;;;;;;;24.68;64.91;97241.74;623881;227;67093;-72
2022/01/01 10:01:12;;;;;;;;;;;;;;;24.68;65.85;97242.53;624866;227;62767;-72
2022/01/01 10:03:44;;;;;;;;;;;;;;;24.69;65.91;97244.16;624788;227;65147;-72
2022/01/01 10:06:13;;;;;;;;;;;;;;;24.69;64.58;97243.33;624808;227;67111;-71
2022/01/01 10:08:42;;;;;;;;;;;;;;;24.68;64.67;97225.62;624775;227;65042;-71
2022/01/01 10:11:10;;;;;;;;;;;;;;;24.68;65.60;97221.03;622495;227;67059;-71
2022/01/01 10:13:39;;;;;;;;;;;;;;;24.71;64.11;97219.66;624680;227;67128;-65
2022/01/01 10:16:07;;;;;;;;;;;;;;;24.70;59.03;97218.07;624819;227;65526;-71
2022/01/01 10:18:38;;;;;;;;;;;;;;;24.74;63.47;97216.39;624773;227;65738;-71
2022/01/01 10:21:08;;;;;;;;;;;;;;;24.70;66.30;97229.61;624554;227;67109;-68
2022/01/01 10:23:37;;;;;;;;;;;;;;;24.65;64.98;97216.25;624744;227;65074;-68
2022/01/01 10:28:58;;;;;;;;;;;;;;;24.64;65.58;97216.55;624804;227;65169;-67
2022/01/01 10:31:26;;;;;;;;;;;;;;;24.63;64.88;97223.00;624772;226;64999;-72
2022/01/01 10:33:54;;;;;;;;;;;;;;;24.63;65.71;97225.69;624780;227;67945;-72
2022/01/01 10:36:22;;;;;;;;;;;;;;;24.63;65.64;97223.00;624808;227;64432;-72
2022/01/01 10:38:50;;;;;;;;;;;;;;;24.62;65.28;97222.20;624791;227;64964;-72
2022/01/01 10:41:18;;;;;;;;;;;;;;;24.62;66.41;97221.41;624790;227;67072;-72
2022/01/01 10:43:46;;;;;;;;;;;;;;;24.64;66.11;97229.98;624823;227;67327;-72
2022/01/01 10:46:19;;;;;;;;;;;;;;;24.62;66.16;97216.83;624764;227;63060;-72
2022/01/01 10:48:57;;;;;;;;;;;;;;;24.63;66.83;97213.04;624781;227;64999;-72
2022/01/01 10:51:22;;;;;;;;;;;;;;;24.63;65.64;97214.94;625432;226;64950;-72
2022/01/01 10:53:51;;;;;;;;;;;;;;;24.63;65.94;97212.25;625921;226;65066;-72
2022/01/01 10:56:19;;;;;;;;;;;;;;;24.64;65.31;97208.48;623704;226;67067;-72
2022/01/01 10:58:48;;;;;;;;;;;;;;;24.62;66.22;97208.77;625924;226;66708;-68
2022/01/01 11:01:17;;;;;;;;;;;;;;;24.63;66.83;97188.86;625675;226;64998;-68
2022/01/01 11:03:45;;;;;;;;;;;;;;;24.64;67.21;97195.84;625837;226;66525;-68
2022/01/01 11:06:13;;;;;;;;;;;;;;;24.64;66.03;97189.68;625960;226;66802;-67
2022/01/01 11:08:42;;;;;;;;;;;;;;;24.63;67.10;97188.86;625965;226;62906;-68
2022/01/01 11:11:10;;;;;;;;;;;;;;;24.64;66.83;97189.68;625887;226;67193;-67
2022/01/01 11:13:38;;;;;;;;;;;;;;;24.64;67.24;97176.24;625950;226;66707;-67
2022/01/01 11:16:06;;;;;;;;;;;;;;;24.64;67.29;97184.31;625935;226;65048;-68
2022/01/01 11:18:34;;;;;;;;;;;;;;;24.64;66.50;97170.88;625951;226;66793;-67
2022/01/01 11:21:03;;;;;;;;;;;;;;;24.64;67.69;97171.66;625995;226;64520;-67
2022/01/01 11:23:31;;;;;;;;;;;;;;;24.65;67.47;97172.45;625903;226;62678;-68
2022/01/01 11:25:59;;;;;;;;;;;;;;;24.64;66.51;97163.60;625925;226;67941;-68
2022/01/01 11:28:26;;;;;;;;;;;;;;;24.65;67.04;97162.50;625926;226;67143;-68
2022/01/01 11:30:56;;;;;;;;;;;;;;;24.65;67.00;97167.08;625907;226;64960;-67
2022/01/01 11:33:30;;;;;;;;;;;;;;;24.66;66.87;97180.21;625935;226;66922;-68
2022/01/01 11:35:58;;;;;;;;;;;;;;;24.65;66.25;97178.63;625918;226;64874;-67
2022/01/01 11:38:27;;;;;;;;;;;;;;;24.66;66.32;97174.84;625878;226;62976;-68
2022/01/01 11:41:01;;;;;;;;;;;;;;;24.66;66.37;97180.21;620361;226;70268;-68
2022/01/01 11:43:33;;;;;;;;;;;;;;;24.65;66.56;97194.75;614733;226;64148;-72
2022/01/01 11:46:02;;;;;;;;;;;;;;;24.66;67.22;97198.23;625915;226;65002;-68
2022/01/01 11:48:37;;;;;;;;;;;;;;;24.66;66.54;97201.70;625905;226;67310;-68
2022/01/01 11:51:21;;;;;;;;;;;;;;;24.66;66.64;97196.33;625125;226;65336;-68
2022/01/01 11:53:56;;;;;;;;;;;;;;;24.66;66.76;97211.66;624773;227;65068;-68
2022/01/01 11:56:24;;;;;;;;;;;;;;;24.65;67.14;97208.19;615591;226;67286;-67
2022/01/01 11:58:52;;;;;;;;;;;;;;;24.65;67.72;97205.50;624669;227;67381;-68
2022/01/01 12:01:20;;;;;;;;;;;;;;;24.65;67.90;97202.81;624739;227;65126;-67
2022/01/01 12:03:49;;;;;;;;;;;;;;;24.65;66.84;97202.81;624808;227;67254;-67
2022/01/01 12:06:17;;;;;;;;;;;;;;;24.65;66.35;97204.70;624800;227;66828;-72
2022/01/01 12:08:46;;;;;;;;;;;;;;;24.66;66.57;97200.91;624779;227;65006;-71
2022/01/01 12:11:31;;;;;;;;;;;;;;;24.66;66.59;97195.54;624789;227;67273;-72
2022/01/01 12:13:59;;;;;;;;;;;;;;;24.67;66.47;97197.16;624495;226;64723;-73
2022/01/01 12:16:27;;;;;;;;;;;;;;;24.67;67.21;97197.16;624815;227;64847;-71
2022/01/01 12:19:02;;;;;;;;;;;;;;;24.67;67.37;97186.41;624814;227;64710;-71
2022/01/01 12:21:31;;;;;;;;;;;;;;;24.67;66.85;97191.78;624798;227;64741;-71
2022/01/01 12:23:59;;;;;;;;;;;;;;;24.66;66.71;97190.96;624589;226;65066;-71
2022/01/01 12:26:28;;;;;;;;;;;;;;;24.67;66.90;97183.72;624764;227;65303;-71
2022/01/01 12:28:57;;;;;;;;;;;;;;;24.68;66.96;97193.38;624046;226;64936;-71
2022/01/01 12:31:25;;;;;;;;;;;;;;;24.69;66.95;97184.20;624711;226;62799;-71
2022/01/01 12:33:55;;;;;;;;;;;;;;;24.69;66.59;97192.27;624834;227;64841;-71
2022/01/01 12:36:24;;;;;;;;;;;;;;;24.69;67.09;97192.27;624773;227;65077;-72
2022/01/01 12:38:56;;;;;;;;;;;;;;;24.70;67.50;97188.52;624726;227;64834;-72
2022/01/01 12:41:25;;;;;;;;;;;;;;;24.70;67.11;97193.89;624792;227;67056;-72
2022/01/01 12:43:57;;;;;;;;;;;;;;;24.71;66.08;97193.58;624673;226;66926;-72
2022/01/01 12:46:25;;;;;;;;;;;;;;;24.74;66.91;97181.45;624829;227;64898;-72
2022/01/01 12:48:54;;;;;;;;;;;;;;;24.75;66.54;97175.00;624697;227;67266;-72
2022/01/01 12:51:23;;;;;;;;;;;;;;;24.75;67.12;97183.06;624729;226;67034;-72
2022/01/01 12:53:55;;;;;;;;;;;;;;;24.75;68.01;97175.00;624761;227;64784;-68
2022/01/01 12:56:22;;;;;;;;;;;;;;;24.77;66.57;97181.69;624487;226;64595;-68
2022/01/01 12:58:51;;;;;;;;;;;;;;;24.80;66.78;97191.85;624806;227;67218;-68
2022/01/01 13:01:20;;;;;;;;;;;;;;;24.80;66.91;97193.75;624813;227;65159;-68